createdAt,value
2023-02-19T00:00:02.552Z,98659.19
2023-02-19T00:05:04.473Z,98659.19
2023-02-19T00:10:06.465Z,98653.81
2023-02-19T00:15:08.104Z,98651.13
2023-02-19T00:20:10.039Z,98656.22
2023-02-19T00:25:11.644Z,98668.47
2023-02-19T00:30:13.665Z,98678.59
2023-02-19T00:35:15.396Z,98668.41
2023-02-19T00:40:17.276Z,98664.44
2023-02-19T00:45:19.238Z,98666.28
2023-02-19T00:50:20.901Z,98655.63
2023-02-19T00:55:22.604Z,98652.34
2023-02-19T01:00:24.311Z,98648.56
2023-02-19T01:05:25.999Z,98655.31
2023-02-19T01:10:27.738Z,98668.41
2023-02-19T01:15:29.359Z,98633.81
2023-02-19T01:20:31.369Z,98650.16
2023-02-19T01:25:33.065Z,98653.56
2023-02-19T01:30:37.573Z,98660.84
2023-02-19T01:35:39.856Z,98653.78
2023-02-19T01:40:41.565Z,98645.34
2023-02-19T01:45:46.643Z,98644.66
2023-02-19T01:50:52.816Z,98638.63
2023-02-19T01:55:58.815Z,98638.25
2023-02-19T02:01:03.119Z,98623.34
2023-02-19T02:06:08.116Z,98621.06
2023-02-19T02:11:10.153Z,98612.50
2023-02-19T02:16:30.139Z,98631.53
2023-02-19T02:22:01.791Z,98608.94
2023-02-19T02:27:35.715Z,98612.91
2023-02-19T02:32:57.465Z,98622.13
2023-02-19T02:38:03.090Z,98609.31
2023-02-19T02:43:04.769Z,98596.03
2023-02-19T02:48:43.534Z,98600.31
2023-02-19T02:54:09.931Z,98599.16
2023-02-19T02:59:13.756Z,98617.81
2023-02-19T03:04:30.129Z,98611.00
2023-02-19T03:09:43.173Z,98605.38
2023-02-19T03:15:09.597Z,98597.00
2023-02-19T03:20:16.126Z,98590.63
2023-02-19T03:25:40.559Z,98591.78
2023-02-19T03:30:47.249Z,98595.38
2023-02-19T03:36:01.067Z,98582.09
2023-02-19T03:41:31.225Z,98575.25
2023-02-19T03:47:05.586Z,98588.00
2023-02-19T03:52:16.627Z,98589.47
2023-02-19T03:57:24.087Z,98584.97
2023-02-19T04:02:38.251Z,98569.53
2023-02-19T04:07:45.710Z,98582.97
2023-02-19T04:13:11.539Z,98577.50
2023-02-19T04:18:17.916Z,98576.41
2023-02-19T04:23:24.080Z,98570.81
2023-02-19T04:28:25.949Z,98562.56
2023-02-19T04:33:27.680Z,98576.91
2023-02-19T04:38:29.376Z,98576.69
2023-02-19T04:43:31.061Z,98558.31
2023-02-19T04:48:32.744Z,98563.09
2023-02-19T04:53:35.015Z,98543.22
2023-02-19T04:58:36.994Z,98561.31
2023-02-19T05:03:39.077Z,98554.06
2023-02-19T05:08:50.608Z,98534.81
2023-02-19T05:13:52.310Z,98557.81
2023-02-19T05:18:54.238Z,98546.34
2023-02-19T05:23:55.952Z,98567.50
2023-02-19T05:28:57.678Z,98557.50
2023-02-19T05:33:59.891Z,98563.09
2023-02-19T05:39:01.580Z,98535.00
2023-02-19T05:44:03.218Z,98547.84
2023-02-19T05:49:04.910Z,98553.63
2023-02-19T05:54:07.696Z,98561.13
2023-02-19T05:59:21.255Z,98562.75
2023-02-19T06:04:23.583Z,98580.28
2023-02-19T06:09:25.295Z,98583.03
2023-02-19T06:14:27.045Z,98576.28
2023-02-19T06:19:28.673Z,98578.84
2023-02-19T06:24:30.652Z,98569.59
2023-02-19T06:29:32.855Z,98579.94
2023-02-19T06:34:35.166Z,98580.66
2023-02-19T06:39:37.072Z,98596.75
2023-02-19T06:44:38.750Z,98596.06
2023-02-19T06:49:40.803Z,98594.84
2023-02-19T06:54:42.525Z,98597.78
2023-02-19T06:59:44.635Z,98621.09
2023-02-19T07:04:46.314Z,98621.88
2023-02-19T07:09:48.050Z,98612.44
2023-02-19T07:14:49.736Z,98602.53
2023-02-19T07:19:51.341Z,98595.38
2023-02-19T07:24:53.009Z,98585.72
2023-02-19T07:29:54.690Z,98586.84
2023-02-19T07:34:56.326Z,98587.56
2023-02-19T07:39:58.005Z,98573.81
2023-02-19T07:45:00.659Z,98577.41
2023-02-19T07:50:02.457Z,98595.38
2023-02-19T07:55:04.325Z,98560.94
2023-02-19T08:00:06.513Z,98555.91
2023-02-19T08:05:08.252Z,98531.03
2023-02-19T08:10:28.455Z,98575.09
2023-02-19T08:15:30.628Z,98582.91
2023-02-19T08:20:32.330Z,98588.97
2023-02-19T08:25:34.395Z,98559.91
2023-02-19T08:30:38.431Z,98562.06
2023-02-19T08:35:42.986Z,98571.13
2023-02-19T08:40:44.642Z,98567.41
2023-02-19T08:45:47.648Z,98583.91
2023-02-19T08:50:57.594Z,98562.06
2023-02-19T08:55:59.660Z,98601.38
2023-02-19T09:01:01.333Z,98583.69
2023-02-19T09:06:03.289Z,98576.38
2023-02-19T09:11:07.194Z,98583.38
2023-02-19T09:16:09.971Z,98598.31
2023-02-19T09:21:11.912Z,98577.16
2023-02-19T09:26:14.147Z,98561.28
2023-02-19T09:31:17.059Z,98563.09
2023-02-19T09:36:19.595Z,98558.59
2023-02-19T09:41:47.437Z,98551.31
2023-02-19T09:46:51.823Z,98542.69
2023-02-19T09:52:12.334Z,98553.06
2023-02-19T09:57:16.652Z,98545.94
2023-02-19T10:02:25.797Z,98554.22
2023-02-19T10:07:38.493Z,98536.16
2023-02-19T10:12:46.151Z,98532.97
2023-02-19T10:17:47.971Z,98530.06
2023-02-19T10:22:49.902Z,98514.88
2023-02-19T10:27:51.573Z,98514.88
2023-02-19T10:33:14.618Z,98517.84
2023-02-19T10:38:17.756Z,98527.63
2023-02-19T10:43:32.060Z,98521.41
2023-02-19T10:48:47.778Z,98526.16
2023-02-19T10:53:52.206Z,98514.75
2023-02-19T10:58:54.111Z,98504.88
2023-02-19T11:04:17.714Z,98505.41
2023-02-19T11:09:31.657Z,98497.31
2023-02-19T11:14:35.111Z,98485.78
2023-02-19T11:19:49.085Z,98467.63
2023-02-19T11:24:55.892Z,98456.16
2023-02-19T11:30:26.866Z,98459.16
2023-02-19T11:35:31.500Z,98452.94
2023-02-19T11:40:45.360Z,98454.44
2023-02-19T11:46:03.775Z,98451.16
2023-02-19T11:51:31.893Z,98440.19
2023-02-19T11:56:37.287Z,98423.16
2023-02-19T12:01:55.788Z,98432.47
2023-02-19T12:07:35.110Z,98421.47
2023-02-19T12:12:56.244Z,98428.78
2023-02-19T12:18:26.862Z,98437.88
2023-02-19T12:24:06.804Z,98427.69
2023-02-19T12:29:22.033Z,98434.41
2023-02-19T12:34:51.195Z,98444.75
2023-02-19T12:39:59.234Z,98438.06
2023-02-19T12:45:15.635Z,98428.75
2023-02-19T12:50:24.003Z,98424.22
2023-02-19T12:55:41.299Z,98422.00
2023-02-19T13:00:50.588Z,98426.09
2023-02-19T13:06:00.925Z,98402.25
2023-02-19T13:11:09.574Z,98385.94
2023-02-19T13:16:18.735Z,98389.03
2023-02-19T13:21:43.378Z,98384.09
2023-02-19T13:27:09.084Z,98385.19
2023-02-19T13:32:27.774Z,98390.19
2023-02-19T13:37:34.721Z,98406.38
2023-02-19T13:42:37.462Z,98392.72
2023-02-19T13:47:54.518Z,98395.75
2023-02-19T13:53:02.105Z,98399.97
2023-02-19T13:58:52.292Z,98403.66
2023-02-19T14:04:07.277Z,98402.84
2023-02-19T14:09:35.561Z,98433.38
2023-02-19T14:14:39.548Z,98432.03
2023-02-19T14:19:51.914Z,98449.50
2023-02-19T14:24:55.218Z,98477.03
2023-02-19T14:29:59.745Z,98470.41
2023-02-19T14:35:02.096Z,98485.75
2023-02-19T14:40:05.981Z,98500.53
2023-02-19T14:45:09.027Z,98510.47
2023-02-19T14:50:26.715Z,98518.69
2023-02-19T14:55:40.040Z,98533.00
2023-02-19T15:00:43.630Z,98538.38
2023-02-19T15:05:47.748Z,98544.06
2023-02-19T15:10:50.064Z,98552.66
2023-02-19T15:15:53.618Z,98553.66
2023-02-19T15:21:05.232Z,98565.25
2023-02-19T15:26:22.942Z,98564.13
2023-02-19T15:31:25.474Z,98587.72
2023-02-19T15:36:35.107Z,98594.63
2023-02-19T15:41:37.819Z,98592.53
2023-02-19T15:46:43.761Z,98588.44
2023-02-19T15:51:58.178Z,98581.56
2023-02-19T15:57:06.562Z,98574.91
2023-02-19T16:02:16.170Z,98588.06
2023-02-19T16:07:32.672Z,98596.28
2023-02-19T16:12:35.386Z,98610.03
2023-02-19T16:17:42.879Z,98598.00
2023-02-19T16:22:45.356Z,98595.94
2023-02-19T16:27:47.746Z,98619.53
2023-02-19T16:33:28.921Z,98626.78
2023-02-19T16:38:31.478Z,98641.44
2023-02-19T16:43:42.192Z,98666.22
2023-02-19T16:48:46.017Z,98659.22
2023-02-19T16:53:48.694Z,98675.63
2023-02-19T16:58:52.482Z,98675.31
2023-02-19T17:04:01.877Z,98690.19
2023-02-19T17:09:06.484Z,98706.81
2023-02-19T17:14:09.898Z,98714.13
2023-02-19T17:19:21.915Z,98720.78
2023-02-19T17:24:25.302Z,98735.25
2023-02-19T17:29:29.124Z,98748.88
2023-02-19T17:34:31.831Z,98757.72
2023-02-19T17:39:34.312Z,98759.91
2023-02-19T17:44:36.581Z,98774.19
2023-02-19T17:49:40.029Z,98794.44
2023-02-19T17:54:43.558Z,98804.38
2023-02-19T17:59:47.324Z,98802.09
2023-02-19T18:04:50.031Z,98803.47
2023-02-19T18:09:52.616Z,98800.50
2023-02-19T18:14:56.782Z,98786.50
2023-02-19T18:20:01.902Z,98808.41
2023-02-19T18:25:08.807Z,98805.25
2023-02-19T18:30:13.035Z,98816.16
2023-02-19T18:35:17.513Z,98822.47
2023-02-19T18:40:28.030Z,98832.91
2023-02-19T18:45:41.179Z,98832.69
2023-02-19T18:50:44.881Z,98858.44
2023-02-19T18:55:47.612Z,98869.75
2023-02-19T19:00:50.267Z,98879.69
2023-02-19T19:05:53.245Z,98877.06
2023-02-19T19:10:56.758Z,98881.09
2023-02-19T19:16:00.104Z,98886.09
2023-02-19T19:21:05.304Z,98892.91
2023-02-19T19:26:08.353Z,98888.88
2023-02-19T19:31:13.204Z,98897.41
2023-02-19T19:36:21.228Z,98904.34
2023-02-19T19:41:24.223Z,98920.94
2023-02-19T19:46:27.678Z,98921.84
2023-02-19T19:51:34.723Z,98911.13
2023-02-19T19:56:47.140Z,98916.56
2023-02-19T20:01:54.711Z,98917.16
2023-02-19T20:07:01.490Z,98915.75
2023-02-19T20:12:05.201Z,98921.19
2023-02-19T20:17:10.187Z,98934.50
2023-02-19T20:22:14.301Z,98946.09
2023-02-19T20:27:17.344Z,98946.81
2023-02-19T20:32:21.252Z,98962.56
2023-02-19T20:37:23.545Z,98978.22
2023-02-19T20:42:26.138Z,98996.41
2023-02-19T20:47:28.579Z,98985.78
2023-02-19T20:52:31.285Z,98990.69
2023-02-19T20:57:33.794Z,98998.69
2023-02-19T21:02:37.055Z,98988.00
2023-02-19T21:07:40.009Z,98972.38
2023-02-19T21:12:42.243Z,98988.53
2023-02-19T21:17:48.064Z,98988.25
2023-02-19T21:22:50.556Z,98999.25
2023-02-19T21:27:54.308Z,99000.09
2023-02-19T21:32:56.198Z,99001.19
2023-02-19T21:37:58.123Z,99015.00
2023-02-19T21:43:00.630Z,99014.66
2023-02-19T21:48:03.072Z,99011.13
2023-02-19T21:53:05.764Z,99020.56
2023-02-19T21:58:08.253Z,99017.47
2023-02-19T22:03:15.559Z,99019.53
2023-02-19T22:08:17.573Z,99016.22
2023-02-19T22:13:19.195Z,99017.06
2023-02-19T22:18:20.857Z,99033.09
2023-02-19T22:23:22.542Z,99030.09
2023-02-19T22:28:24.730Z,99031.16
2023-02-19T22:33:26.373Z,99036.53
2023-02-19T22:38:27.940Z,99047.66
2023-02-19T22:43:29.568Z,99054.84
2023-02-19T22:48:31.490Z,99061.91
2023-02-19T22:53:33.184Z,99068.97
2023-02-19T22:58:34.826Z,99075.19
2023-02-19T23:03:45.933Z,99087.72
2023-02-19T23:08:47.682Z,99079.69
2023-02-19T23:13:49.509Z,99090.22
2023-02-19T23:18:51.472Z,99100.25
2023-02-19T23:23:53.359Z,99111.25
2023-02-19T23:28:54.998Z,99112.97
2023-02-19T23:33:56.709Z,99121.75
2023-02-19T23:38:58.398Z,99139.72
2023-02-19T23:44:00.019Z,99125.69
2023-02-19T23:49:01.648Z,99140.28
2023-02-19T23:54:03.511Z,99129.81
2023-02-19T23:59:05.956Z,99152.72
